Time;durP1;ratioP1;P1;durP2;ratioP2;P2;SDS_P1;SDS_P2;PMS_P1;PMS_P2;Temp;Humidity;BMP_temperature;BMP_pressure;BME280_temperature;BME280_humidity;BME280_pressure;Samples;Min_cycle;Max_cycle;Signal;HPM_P1;HPM_P2
2021/12/26 04:32:50;;;;;;;28.03;17.00;;;;;;;9.36;63.82;97761.63;7206520;23;20237;-82
2021/12/26 04:36:13;;;;;;;31.03;18.30;;;;;;;9.50;63.84;97783.81;6867954;28;20578;-82
2021/12/26 04:39:34;;;;;;;29.50;17.53;;;;;;;9.67;63.69;97793.75;6867916;28;20223;-82
2021/12/26 04:42:56;;;;;;;34.43;18.83;;;;;;;9.70;63.21;97763.69;6845384;28;20278;-83
2021/12/26 04:46:18;;;;;;;28.30;17.37;;;;;;;9.55;63.69;97789.34;6841493;28;20189;-83
2021/12/26 04:49:41;;;;;;;25.00;16.63;;;;;;;9.70;63.94;97797.88;6841762;28;20210;-82
2021/12/26 04:53:03;;;;;;;26.47;17.60;;;;;;;9.63;63.76;97794.44;6842062;28;20257;-82
2021/12/26 04:56:24;;;;;;;37.40;19.13;;;;;;;9.57;63.14;97793.44;6840913;28;20216;-82
2021/12/26 04:59:46;;;;;;;30.80;18.27;;;;;;;9.62;63.39;97792.81;6842557;28;20212;-82
2021/12/26 05:03:08;;;;;;;27.87;19.17;;;;;;;9.48;63.99;97804.72;6841265;28;20232;-83
2021/12/26 05:06:31;;;;;;;26.07;16.90;;;;;;;9.34;63.88;97769.06;6839614;28;20230;-83
2021/12/26 05:09:53;;;;;;;30.23;20.23;;;;;;;9.43;64.33;97788.44;6830159;28;20202;-83
2021/12/26 05:13:14;;;;;;;29.77;18.07;;;;;;;9.37;64.11;97798.22;6835503;28;20459;-82
2021/12/26 05:16:36;;;;;;;29.37;18.53;;;;;;;9.42;64.45;97797.56;6840278;28;20668;-83
2021/12/26 05:19:58;;;;;;;28.40;18.30;;;;;;;9.29;63.98;97784.25;6841247;28;20216;-82
2021/12/26 05:23:21;;;;;;;29.57;18.70;;;;;;;9.58;63.83;97791.59;6815874;28;20691;-83
2021/12/26 05:26:42;;;;;;;29.93;18.50;;;;;;;9.63;63.40;97797.94;6816139;29;20295;-83
2021/12/26 05:30:05;;;;;;;29.07;18.10;;;;;;;9.57;63.48;97790.75;6839701;29;20219;-83
2021/12/26 05:33:27;;;;;;;31.53;18.90;;;;;;;9.61;64.17;97796.50;6842597;29;20321;-83
2021/12/26 05:36:49;;;;;;;34.07;18.70;;;;;;;9.86;63.54;97789.22;6821968;28;20227;-83
2021/12/26 05:40:13;;;;;;;30.10;18.90;;;;;;;9.65;63.05;97755.50;6817458;29;20209;-83
2021/12/26 05:43:34;;;;;;;31.50;18.23;;;;;;;9.69;63.41;97793.56;6820402;28;20319;-83
2021/12/26 05:46:56;;;;;;;32.57;19.33;;;;;;;9.75;63.40;97771.94;6827476;29;20220;-84
2021/12/26 05:50:19;;;;;;;28.00;17.27;;;;;;;9.42;63.89;97782.25;6836799;29;20209;-83
2021/12/26 05:53:41;;;;;;;30.50;18.83;;;;;;;9.66;64.10;97786.75;6838791;29;20206;-83
2021/12/26 05:57:05;;;;;;;29.77;18.70;;;;;;;9.68;63.72;97784.66;6824747;29;20224;-83
2021/12/26 06:00:27;;;;;;;36.73;19.70;;;;;;;9.54;63.75;97753.56;6815775;29;20216;-82
2021/12/26 06:03:48;;;;;;;32.20;18.50;;;;;;;9.79;63.66;97780.38;6836289;29;20226;-82
2021/12/26 06:07:10;;;;;;;33.47;19.33;;;;;;;9.54;64.11;97783.16;6843607;28;20212;-82
2021/12/26 06:10:32;;;;;;;34.47;20.47;;;;;;;9.68;63.33;97779.25;6823327;28;20328;-82
2021/12/26 06:13:55;;;;;;;31.60;19.00;;;;;;;9.79;63.54;97786.59;6820832;29;20207;-82
2021/12/26 06:17:16;;;;;;;30.53;18.70;;;;;;;9.67;63.56;97777.63;6821084;29;20215;-82
2021/12/26 06:20:38;;;;;;;31.10;19.27;;;;;;;9.65;63.55;97770.81;6820891;29;20605;-83
2021/12/26 06:24:00;;;;;;;32.40;19.10;;;;;;;9.73;63.03;97771.34;6835513;29;20225;-83
2021/12/26 06:27:21;;;;;;;37.53;20.80;;;;;;;9.64;63.51;97788.81;6838096;29;20568;-82
2021/12/26 06:30:44;;;;;;;34.63;20.27;;;;;;;9.44;63.98;97765.84;6823525;29;20232;-83
2021/12/26 06:34:06;;;;;;;33.70;19.20;;;;;;;9.73;64.05;97790.19;6830503;29;20668;-82
2021/12/26 06:37:27;;;;;;;36.43;20.03;;;;;;;9.59;63.68;97759.09;6847474;28;20581;-83
2021/12/26 06:40:49;;;;;;;35.87;20.10;;;;;;;9.68;63.29;97762.31;6836605;28;20257;-80
2021/12/26 06:44:11;;;;;;;29.00;18.50;;;;;;;9.90;63.19;97788.53;6819011;29;20325;-84
2021/12/26 06:47:34;;;;;;;29.80;19.23;;;;;;;10.02;62.60;97794.81;6824501;29;20216;-83
2021/12/26 06:50:55;;;;;;;26.87;17.57;;;;;;;9.77;63.49;97802.16;6837706;28;20919;-83
2021/12/26 06:54:17;;;;;;;28.83;18.67;;;;;;;9.70;63.17;97796.00;6823735;29;20216;-83
2021/12/26 06:57:40;;;;;;;30.60;16.97;;;;;;;9.69;63.35;97807.81;6821538;29;20689;-83
2021/12/26 07:01:02;;;;;;;29.30;18.43;;;;;;;9.46;63.94;97778.03;6823529;29;20228;-82
2021/12/26 07:04:25;;;;;;;43.00;20.93;;;;;;;9.66;63.52;97810.97;6822032;29;20232;-82
2021/12/26 07:07:46;;;;;;;34.90;21.33;;;;;;;9.59;63.85;97815.59;6823695;29;20663;-83
2021/12/26 07:11:08;;;;;;;34.43;21.37;;;;;;;9.73;63.39;97810.88;6822576;29;20227;-84
2021/12/26 07:14:30;;;;;;;36.13;21.47;;;;;;;9.65;63.88;97817.41;6829860;29;20211;-81
2021/12/26 07:17:51;;;;;;;35.70;21.00;;;;;;;9.55;63.39;97783.97;6829986;28;20209;-83
2021/12/26 07:21:14;;;;;;;38.10;21.60;;;;;;;9.76;63.38;97813.13;6821947;29;20224;-83
2021/12/26 07:24:36;;;;;;;34.23;20.57;;;;;;;9.89;63.41;97812.97;6829453;29;20233;-84
2021/12/26 07:27:57;;;;;;;35.87;21.93;;;;;;;9.48;63.56;97762.53;6841888;28;20213;-83
2021/12/26 07:31:19;;;;;;;31.50;19.97;;;;;;;10.27;62.26;97819.78;6830957;28;20237;-84
2021/12/26 07:34:41;;;;;;;26.10;17.97;;;;;;;10.35;62.40;97814.09;6822091;29;20204;-83
2021/12/26 07:38:04;;;;;;;26.80;17.63;;;;;;;10.13;61.82;97810.25;6821849;29;20256;-83
2021/12/26 07:41:26;;;;;;;25.60;16.57;;;;;;;9.73;62.49;97805.50;6821891;29;20237;-83
2021/12/26 07:44:48;;;;;;;30.20;18.20;;;;;;;9.89;63.41;97826.44;6821395;29;20235;-83
2021/12/26 07:48:10;;;;;;;30.43;18.10;;;;;;;9.97;62.96;97837.72;6825269;29;20215;-83
2021/12/26 07:51:31;;;;;;;31.87;17.47;;;;;;;10.36;62.79;97821.13;6826721;29;20235;-83
2021/12/26 07:54:54;;;;;;;26.93;17.90;;;;;;;10.49;62.12;97810.16;6843251;28;20654;-83
2021/12/26 07:58:17;;;;;;;30.20;18.83;;;;;;;10.30;62.00;97808.56;6848947;29;20208;-83
2021/12/26 08:01:39;;;;;;;27.43;17.47;;;;;;;10.57;62.31;97841.38;6835941;28;20221;-82
2021/12/26 08:05:01;;;;;;;26.83;17.00;;;;;;;10.26;61.91;97833.47;6822377;29;20711;-82
2021/12/26 08:08:22;;;;;;;25.53;17.80;;;;;;;10.46;62.38;97844.84;6845479;29;20196;-84
2021/12/26 08:11:45;;;;;;;27.30;17.17;;;;;;;10.60;61.69;97824.72;6847400;28;20241;-81
2021/12/26 08:15:08;;;;;;;24.30;16.53;;;;;;;10.77;61.52;97826.56;6840016;28;20211;-82
2021/12/26 08:18:29;;;;;;;25.33;16.93;;;;;;;11.05;60.26;97853.69;6823203;28;20213;-82
2021/12/26 08:21:52;;;;;;;24.67;18.00;;;;;;;10.99;60.25;97846.53;6826666;29;20217;-80
2021/12/26 08:25:14;;;;;;;22.87;15.93;;;;;;;10.77;60.78;97837.34;6842931;28;20360;-82
2021/12/26 08:28:37;;;;;;;24.57;15.77;;;;;;;10.91;60.24;97848.72;6824111;28;20670;-80
2021/12/26 08:32:00;;;;;;;26.77;17.93;;;;;;;10.32;61.20;97821.78;6837427;28;20240;-84
2021/12/26 08:35:22;;;;;;;25.57;17.83;;;;;;;10.44;61.87;97846.91;6841879;29;20218;-83
2021/12/26 08:38:44;;;;;;;29.57;18.70;;;;;;;10.45;62.33;97830.53;6824066;28;20290;-81
2021/12/26 08:42:07;;;;;;;36.27;23.70;;;;;;;10.78;62.09;97838.16;6819121;29;20222;-82
2021/12/26 08:45:30;;;;;;;27.77;20.13;;;;;;;11.03;60.97;97819.94;6839364;29;20208;-83
2021/12/26 08:48:51;;;;;;;30.23;20.17;;;;;;;11.00;61.08;97823.09;6833161;28;20215;-83
2021/12/26 08:52:13;;;;;;;25.37;18.20;;;;;;;11.08;60.21;97811.97;6823190;29;20229;-83
2021/12/26 08:55:36;;;;;;;23.53;17.43;;;;;;;11.16;60.01;97823.22;6828816;29;20216;-83
2021/12/26 08:58:58;;;;;;;24.27;17.57;;;;;;;11.20;60.13;97848.69;6819135;28;20718;-81
2021/12/26 09:02:21;;;;;;;21.77;16.23;;;;;;;11.34;60.16;97841.22;6819875;29;20230;-84
2021/12/26 09:05:43;;;;;;;26.63;17.17;;;;;;;11.08;60.98;97834.38;6830702;29;20216;-82
2021/12/26 09:09:05;;;;;;;27.53;17.90;;;;;;;11.03;61.07;97828.03;6831551;29;20252;-82
2021/12/26 09:12:27;;;;;;;24.17;16.57;;;;;;;11.14;61.04;97821.81;6822482;29;20231;-82
2021/12/26 09:15:48;;;;;;;25.13;16.37;;;;;;;11.49;60.51;97857.75;6829457;28;20205;-83
2021/12/26 09:19:11;;;;;;;20.27;15.80;;;;;;;11.51;60.46;97839.47;6820028;28;20206;-83
2021/12/26 09:22:33;;;;;;;22.13;15.87;;;;;;;11.85;59.57;97857.56;6827660;29;20235;-81
2021/12/26 09:25:55;;;;;;;20.57;15.83;;;;;;;11.85;59.27;97854.84;6828045;28;20205;-84
2021/12/26 09:29:16;;;;;;;22.07;15.97;;;;;;;11.72;59.69;97855.94;6830540;29;20733;-81
2021/12/26 09:32:38;;;;;;;20.07;15.60;;;;;;;11.48;60.67;97848.84;6836237;28;20240;-81
2021/12/26 09:36:01;;;;;;;14.60;11.40;;;;;;;11.10;60.09;97853.84;6830603;29;20196;-81
2021/12/26 09:39:23;;;;;;;12.50;9.50;;;;;;;10.87;60.89;97877.22;6831715;28;20603;-81
2021/12/26 09:42:46;;;;;;;11.50;8.93;;;;;;;11.28;59.69;97869.13;6831249;29;20236;-79
2021/12/26 09:46:07;;;;;;;9.73;8.43;;;;;;;11.08;61.33;97869.44;6836821;29;20218;-82
2021/12/26 09:49:29;;;;;;;10.87;8.47;;;;;;;10.97;61.55;97859.44;6835573;29;20203;-80
2021/12/26 09:52:54;;;;;;;11.93;9.20;;;;;;;10.90;62.38;97866.81;6845713;28;20226;-82
2021/12/26 09:56:15;;;;;;;12.50;9.27;;;;;;;11.23;62.09;97833.94;6838078;28;20201;-81
2021/12/26 09:59:37;;;;;;;11.83;10.07;;;;;;;11.84;60.73;97856.75;6843966;28;20210;-81
2021/12/26 10:03:17;;;;;;;12.37;9.53;;;;;;;11.35;60.90;97857.19;6844914;29;20399;-81
2021/12/26 10:06:38;;;;;;;11.77;9.13;;;;;;;11.74;60.88;97844.91;6848600;28;20223;-83
2021/12/26 10:10:05;;;;;;;12.03;8.80;;;;;;;11.47;61.67;97849.09;6839332;28;20235;-82
2021/12/26 10:13:37;;;;;;;9.63;8.27;;;;;;;11.84;59.40;97824.34;6824497;29;20227;-81
2021/12/26 10:17:01;;;;;;;12.23;9.13;;;;;;;11.72;60.86;97826.25;6830244;29;20218;-80
2021/12/26 10:20:23;;;;;;;8.90;7.93;;;;;;;11.71;61.03;97786.78;6830354;29;20237;-82
2021/12/26 10:23:45;;;;;;;10.30;8.53;;;;;;;12.24;60.42;97798.19;6823953;29;20234;-84
2021/12/26 10:27:09;;;;;;;9.70;8.70;;;;;;;12.45;59.03;97816.44;6824627;29;20206;-83
2021/12/26 10:33:54;;;;;;;8.87;7.33;;;;;;;12.60;58.68;97814.03;6873094;28;20232;-84
2021/12/26 10:37:18;;;;;;;8.20;7.00;;;;;;;12.69;58.54;97817.16;6877316;28;20219;-84
2021/12/26 10:40:39;;;;;;;8.00;6.97;;;;;;;12.54;58.68;97814.16;6853296;28;20225;-84
2021/12/26 10:44:02;;;;;;;9.63;7.07;;;;;;;12.39;58.67;97809.28;6850742;28;20234;-81
2021/12/26 10:47:26;;;;;;;9.40;7.33;;;;;;;11.87;60.14;97807.66;6873117;28;20189;-87
2021/12/26 10:50:47;;;;;;;8.77;7.87;;;;;;;11.58;61.36;97796.97;6884918;28;20229;-86
2021/12/26 10:54:13;;;;;;;8.57;7.70;;;;;;;11.82;62.72;97795.94;6874903;28;20205;-87
2021/12/26 10:57:36;;;;;;;8.00;7.00;;;;;;;12.32;59.83;97792.38;6876014;28;20202;-86
2021/12/26 11:00:59;;;;;;;7.37;6.30;;;;;;;12.59;59.13;97769.13;6876317;28;20221;-86
2021/12/26 11:04:21;;;;;;;6.77;6.03;;;;;;;13.09;58.54;97794.38;6869080;28;20229;-85
2021/12/26 11:07:55;;;;;;;7.20;6.40;;;;;;;13.08;58.75;97783.78;6875442;28;20219;-85
2021/12/26 11:11:23;;;;;;;9.77;7.03;;;;;;;13.22;57.32;97796.75;6875669;28;20233;-83
2021/12/26 11:14:58;;;;;;;9.07;5.97;;;;;;;13.23;57.62;97795.69;6876601;28;20204;-85
2021/12/26 11:18:21;;;;;;;8.17;6.40;;;;;;;13.33;57.10;97787.72;6878379;28;20716;-85
2021/12/26 11:21:43;;;;;;;7.13;5.93;;;;;;;12.94;57.35;97802.22;6873723;28;20221;-85
2021/12/26 11:25:05;;;;;;;7.67;6.37;;;;;;;12.15;60.56;97788.00;6863533;28;20226;-84
2021/12/26 11:28:30;;;;;;;8.97;7.57;;;;;;;11.56;62.28;97782.91;6877221;28;20224;-84
2021/12/26 11:31:54;;;;;;;7.93;6.43;;;;;;;12.22;61.15;97769.75;6862247;28;20347;-85
2021/12/26 11:35:17;;;;;;;6.53;5.87;;;;;;;12.28;61.44;97779.59;6876230;28;20581;-84
2021/12/26 11:38:40;;;;;;;7.13;6.17;;;;;;;12.66;60.00;97782.47;6877207;28;20212;-84
2021/12/26 11:42:23;;;;;;;6.47;5.70;;;;;;;12.53;60.03;97766.56;6877292;28;20229;-85
2021/12/26 11:45:53;;;;;;;6.27;5.67;;;;;;;12.66;59.53;97772.50;6849192;28;20241;-85
2021/12/26 11:49:33;;;;;;;8.97;5.97;;;;;;;12.17;60.42;97767.75;6865553;28;20572;-86
2021/12/26 11:53:08;;;;;;;7.00;6.27;;;;;;;11.84;61.78;97759.53;6875494;28;20284;-85
2021/12/26 11:56:36;;;;;;;6.43;5.83;;;;;;;11.96;61.32;97764.88;6876053;28;20208;-87
2021/12/26 12:00:07;;;;;;;6.53;5.90;;;;;;;12.80;58.70;97763.00;6870221;28;20232;-87
2021/12/26 12:03:32;;;;;;;6.43;5.80;;;;;;;12.45;58.76;97756.97;6864955;28;20225;-86
2021/12/26 12:06:55;;;;;;;8.70;7.03;;;;;;;11.80;61.37;97742.16;6868602;28;20201;-88
2021/12/26 12:10:43;;;;;;;8.70;6.40;;;;;;;11.83;61.64;97732.75;6865991;28;20654;-88
2021/12/26 12:14:05;;;;;;;8.13;6.77;;;;;;;12.03;62.69;97696.16;6873444;28;20208;-86
2021/12/26 12:17:29;;;;;;;6.33;5.73;;;;;;;12.83;59.72;97737.34;6858411;28;20201;-85
2021/12/26 12:21:11;;;;;;;6.10;5.50;;;;;;;12.27;59.96;97748.25;6868957;28;20684;-85
2021/12/26 12:24:33;;;;;;;7.07;6.23;;;;;;;12.60;59.32;97749.13;6861861;28;20220;-85
2021/12/26 12:28:13;;;;;;;5.63;5.13;;;;;;;12.91;58.60;97743.19;6872410;28;20676;-86
2021/12/26 12:31:35;;;;;;;6.83;5.83;;;;;;;12.68;58.81;97743.31;6867025;28;20321;-85
2021/12/26 12:34:58;;;;;;;5.57;4.93;;;;;;;12.67;58.98;97738.97;6865452;28;20201;-86
2021/12/26 12:38:26;;;;;;;5.43;4.93;;;;;;;12.49;59.98;97746.47;6859670;28;20197;-85
2021/12/26 12:41:48;;;;;;;5.30;4.80;;;;;;;12.49;59.85;97741.06;6859416;28;20217;-85
2021/12/26 12:45:11;;;;;;;7.00;5.23;;;;;;;12.87;59.02;97752.03;6857689;28;20228;-86
2021/12/26 12:48:38;;;;;;;5.60;5.03;;;;;;;12.47;60.07;97743.22;6872642;28;20205;-85
2021/12/26 12:51:59;;;;;;;6.43;5.60;;;;;;;12.31;60.96;97736.69;6871787;28;20216;-85
2021/12/26 12:55:26;;;;;;;6.20;5.60;;;;;;;12.17;61.15;97753.44;6871157;28;20216;-85
2021/12/26 12:58:47;;;;;;;5.90;5.07;;;;;;;11.92;61.37;97752.94;6858968;28;20208;-85
2021/12/26 13:02:29;;;;;;;7.37;5.60;;;;;;;12.88;60.46;97742.84;6872673;28;20696;-86
2021/12/26 13:05:52;;;;;;;6.23;5.17;;;;;;;12.35;60.72;97745.16;6871375;28;20235;-86
2021/12/26 13:09:14;;;;;;;6.13;5.53;;;;;;;12.20;61.77;97736.72;6872399;28;20203;-85
2021/12/26 13:12:35;;;;;;;5.40;4.90;;;;;;;12.15;61.99;97748.28;6872770;28;20238;-86
2021/12/26 13:15:59;;;;;;;5.67;5.10;;;;;;;12.14;62.32;97743.09;6846681;28;20229;-86
2021/12/26 13:19:22;;;;;;;5.50;4.90;;;;;;;12.47;60.63;97738.63;6851696;28;20216;-85
2021/12/26 13:22:47;;;;;;;5.53;5.00;;;;;;;13.05;59.78;97744.50;6851804;28;20567;-85
2021/12/26 13:26:10;;;;;;;5.40;4.90;;;;;;;12.97;59.73;97733.28;6852285;28;20235;-86
2021/12/26 13:29:32;;;;;;;5.67;5.07;;;;;;;13.07;59.34;97752.41;6865438;28;20673;-85
2021/12/26 13:32:55;;;;;;;6.60;4.97;;;;;;;12.77;59.88;97743.75;6877818;28;20228;-86
2021/12/26 13:36:27;;;;;;;7.40;5.80;;;;;;;12.28;61.33;97741.78;6859729;28;20205;-86
2021/12/26 13:39:55;;;;;;;6.87;6.17;;;;;;;12.10;62.18;97747.38;6878377;28;20201;-87
2021/12/26 13:43:25;;;;;;;5.93;5.43;;;;;;;12.68;60.44;97740.63;6877639;28;20374;-87
2021/12/26 13:46:47;;;;;;;5.70;5.10;;;;;;;12.59;60.07;97735.84;6876964;28;20665;-86
2021/12/26 13:50:11;;;;;;;8.33;5.13;;;;;;;12.81;59.93;97743.00;6877068;28;20204;-86
2021/12/26 13:53:37;;;;;;;5.50;5.00;;;;;;;12.91;59.58;97728.81;6874511;28;20288;-87
2021/12/26 13:57:02;;;;;;;10.00;5.87;;;;;;;12.80;59.71;97749.47;6864439;28;20214;-86
2021/12/26 14:00:23;;;;;;;6.67;5.43;;;;;;;12.44;60.75;97738.28;6854448;28;20228;-86
2021/12/26 14:03:46;;;;;;;7.00;6.17;;;;;;;12.42;60.91;97735.00;6876143;28;20221;-86
2021/12/26 14:07:08;;;;;;;7.80;6.60;;;;;;;11.77;62.14;97734.53;6879688;28;20213;-86
2021/12/26 14:10:31;;;;;;;6.23;5.63;;;;;;;11.92;62.22;97724.03;6882112;28;20197;-86
2021/12/26 14:13:57;;;;;;;6.07;5.43;;;;;;;11.87;62.67;97736.63;6886390;28;20232;-85
2021/12/26 14:17:18;;;;;;;6.67;5.57;;;;;;;12.11;62.15;97740.91;6858430;28;20200;-86
2021/12/26 14:20:46;;;;;;;5.53;4.87;;;;;;;11.90;62.24;97747.78;6881326;28;20224;-86
2021/12/26 14:24:08;;;;;;;5.30;4.80;;;;;;;12.49;61.53;97730.25;6869102;28;20243;-86
2021/12/26 14:27:31;;;;;;;5.30;4.80;;;;;;;13.09;59.62;97747.56;6873120;28;20200;-86
2021/12/26 14:30:56;;;;;;;8.03;4.93;;;;;;;12.71;59.71;97721.22;6868968;28;20260;-87
2021/12/26 14:34:20;;;;;;;5.77;5.20;;;;;;;12.72;59.52;97743.66;6872829;28;20537;-86
2021/12/26 14:37:41;;;;;;;4.83;4.43;;;;;;;12.86;58.95;97728.75;6875304;28;20233;-86
2021/12/26 14:41:21;;;;;;;6.20;5.10;;;;;;;12.65;59.44;97732.19;6874512;28;20228;-86
2021/12/26 14:44:46;;;;;;;6.83;5.00;;;;;;;12.33;59.43;97704.03;6877374;28;20228;-87
2021/12/26 14:48:07;;;;;;;5.47;4.93;;;;;;;12.30;60.62;97701.81;6872028;28;20577;-86
2021/12/26 14:51:29;;;;;;;5.77;4.87;;;;;;;12.81;58.82;97709.75;6859548;28;20236;-86
2021/12/26 14:54:53;;;;;;;6.40;4.50;;;;;;;12.99;58.36;97725.75;6848838;28;20216;-86
2021/12/26 14:58:18;;;;;;;5.80;5.10;;;;;;;13.14;58.09;97743.06;6868027;28;20201;-85
2021/12/26 15:01:41;;;;;;;6.53;5.87;;;;;;;13.08;57.94;97725.09;6859897;28;20236;-86
2021/12/26 15:05:05;;;;;;;7.37;5.40;;;;;;;13.25;57.27;97739.44;6867450;28;20225;-86
2021/12/26 15:08:28;;;;;;;7.83;5.80;;;;;;;13.03;56.98;97725.00;6860274;28;20206;-85
2021/12/26 15:11:49;;;;;;;6.93;5.87;;;;;;;12.95;57.91;97735.38;6871380;28;20228;-84
2021/12/26 15:15:19;;;;;;;7.07;5.17;;;;;;;12.98;57.45;97734.94;6873757;28;20228;-84
2021/12/26 15:18:42;;;;;;;5.33;4.90;;;;;;;12.82;57.48;97712.22;6874461;28;20211;-88
2021/12/26 15:22:05;;;;;;;6.13;5.23;;;;;;;12.70;58.65;97724.16;6872343;28;20224;-86
2021/12/26 15:25:29;;;;;;;6.17;5.60;;;;;;;12.66;59.18;97728.41;6871663;28;20229;-88
2021/12/26 15:28:51;;;;;;;6.33;5.70;;;;;;;12.41;59.47;97736.06;6871990;28;20205;-87
2021/12/26 15:32:15;;;;;;;6.27;5.67;;;;;;;12.47;59.24;97724.28;6884824;28;20233;-87
2021/12/26 15:35:39;;;;;;;6.63;5.90;;;;;;;12.50;58.88;97737.28;6878423;28;20289;-87
2021/12/26 15:39:02;;;;;;;7.07;5.63;;;;;;;12.62;59.17;97735.38;6876302;28;20216;-87
2021/12/26 15:42:24;;;;;;;7.53;6.37;;;;;;;12.50;59.13;97724.63;6850638;28;20232;-87
2021/12/26 15:45:45;;;;;;;6.70;5.43;;;;;;;12.33;59.06;97734.56;6849060;28;20236;-87
2021/12/26 15:49:09;;;;;;;7.70;5.83;;;;;;;11.86;60.73;97732.28;6866153;28;20213;-86
2021/12/26 15:52:32;;;;;;;7.83;6.33;;;;;;;12.41;59.97;97739.59;6866191;28;20221;-85
2021/12/26 15:55:54;;;;;;;7.47;5.97;;;;;;;12.10;60.01;97728.47;6858988;28;20209;-84
2021/12/26 15:59:16;;;;;;;6.67;6.07;;;;;;;12.32;60.24;97732.94;6852468;28;20205;-84
2021/12/26 16:02:38;;;;;;;6.27;5.43;;;;;;;12.52;59.24;97748.72;6844797;28;20296;-84
2021/12/26 16:05:59;;;;;;;6.67;5.97;;;;;;;12.73;58.48;97751.53;6866805;28;20513;-85
2021/12/26 16:09:22;;;;;;;7.10;6.40;;;;;;;12.21;59.54;97741.09;6862088;28;20268;-84
2021/12/26 16:12:44;;;;;;;7.17;5.70;;;;;;;12.32;59.52;97759.13;6854359;28;20220;-85
2021/12/26 16:16:06;;;;;;;6.37;5.77;;;;;;;12.26;58.91;97725.78;6872486;28;20223;-86
2021/12/26 16:19:28;;;;;;;6.30;5.70;;;;;;;11.94;60.19;97745.41;6853423;28;20212;-86
2021/12/26 16:22:50;;;;;;;7.07;6.37;;;;;;;11.68;61.03;97738.66;6862337;28;20217;-86
2021/12/26 16:26:13;;;;;;;6.93;6.23;;;;;;;12.02;61.06;97753.13;6871733;28;20225;-86
2021/12/26 16:29:35;;;;;;;7.23;6.43;;;;;;;12.53;59.31;97750.34;6872662;28;20205;-86
2021/12/26 16:32:56;;;;;;;7.23;6.27;;;;;;;12.06;59.58;97746.19;6837458;23;20292;-84
2021/12/26 16:36:19;;;;;;;8.80;6.90;;;;;;;11.69;61.10;97734.09;6812792;29;20222;-85
2021/12/26 16:39:41;;;;;;;7.57;6.70;;;;;;;11.62;61.59;97744.19;6819853;29;20210;-83
2021/12/26 16:43:04;;;;;;;6.57;5.83;;;;;;;11.85;61.26;97760.34;6818358;29;20240;-84
2021/12/26 16:46:28;;;;;;;6.17;5.57;;;;;;;12.38;59.92;97748.19;6819306;29;20233;-84
2021/12/26 16:49:50;;;;;;;7.23;6.07;;;;;;;12.53;58.79;97753.88;6819871;29;20205;-83
2021/12/26 16:53:11;;;;;;;7.30;5.93;;;;;;;12.64;58.10;97741.34;6818967;29;20218;-85
2021/12/26 16:56:34;;;;;;;7.47;6.37;;;;;;;12.49;58.15;97746.47;6819619;29;20207;-83
2021/12/26 16:59:58;;;;;;;6.93;6.23;;;;;;;11.54;60.72;97739.94;6819146;29;20206;-83
2021/12/26 17:03:20;;;;;;;7.43;6.60;;;;;;;11.48;62.05;97758.94;6819460;29;20226;-84
2021/12/26 17:06:42;;;;;;;7.23;6.47;;;;;;;11.45;62.29;97760.25;6819390;29;20230;-84
2021/12/26 17:10:04;;;;;;;6.83;5.93;;;;;;;11.50;61.79;97744.16;6809219;29;20210;-84
2021/12/26 17:13:31;;;;;;;8.23;6.53;;;;;;;11.06;62.84;97768.22;6817357;29;20260;-82
2021/12/26 17:16:54;;;;;;;7.00;6.07;;;;;;;11.40;62.92;97759.31;6817735;29;20246;-82
2021/12/26 17:20:16;;;;;;;7.43;5.97;;;;;;;11.44;62.40;97741.59;6818689;29;20257;-81
2021/12/26 17:23:38;;;;;;;7.40;6.33;;;;;;;11.61;61.86;97756.88;6813871;29;20244;-82
2021/12/26 17:27:00;;;;;;;7.90;6.57;;;;;;;11.68;61.40;97733.25;6819504;29;20329;-82
2021/12/26 17:30:21;;;;;;;8.03;6.90;;;;;;;11.45;62.04;97762.16;6819590;29;20233;-84
2021/12/26 17:33:45;;;;;;;8.00;6.30;;;;;;;10.70;62.92;97703.72;6817503;29;20209;-82
2021/12/26 17:37:06;;;;;;;7.00;6.30;;;;;;;11.23;63.01;97753.78;6818794;29;20461;-83
2021/12/26 17:40:28;;;;;;;8.30;6.73;;;;;;;11.63;61.92;97751.25;6818814;29;20206;-83
2021/12/26 17:43:51;;;;;;;8.63;7.20;;;;;;;11.96;61.18;97751.38;6803843;29;20213;-83
2021/12/26 17:47:12;;;;;;;8.33;6.40;;;;;;;12.09;60.51;97741.13;6818181;29;20253;-82
2021/12/26 17:50:35;;;;;;;7.87;6.57;;;;;;;12.28;60.35;97749.88;6819921;29;20240;-83
2021/12/26 17:53:57;;;;;;;7.40;6.73;;;;;;;12.41;59.99;97746.88;6819111;29;20210;-83
2021/12/26 17:57:18;;;;;;;8.20;7.40;;;;;;;12.13;60.70;97739.59;6820503;29;20220;-83
2021/12/26 18:00:40;;;;;;;8.17;6.97;;;;;;;12.24;60.63;97740.59;6819964;29;20233;-83
2021/12/26 18:04:04;;;;;;;11.80;7.97;;;;;;;12.04;60.95;97742.94;6822805;29;20212;-83
2021/12/26 18:07:27;;;;;;;8.23;7.33;;;;;;;12.26;61.24;97746.56;6839249;29;20300;-81
2021/12/26 18:10:49;;;;;;;9.57;8.20;;;;;;;12.26;61.12;97747.41;6852255;28;20622;-83
2021/12/26 18:14:10;;;;;;;11.10;8.40;;;;;;;11.94;61.85;97746.25;6842973;28;20214;-84
2021/12/26 18:17:32;;;;;;;9.43;8.07;;;;;;;11.61;63.42;97746.06;6824513;29;20209;-83
2021/12/26 18:20:56;;;;;;;8.40;7.40;;;;;;;11.55;63.04;97727.25;6824844;29;20230;-83
2021/12/26 18:24:19;;;;;;;9.30;7.83;;;;;;;11.50;63.51;97730.66;6823859;29;20206;-83
2021/12/26 18:27:41;;;;;;;9.60;8.47;;;;;;;11.57;62.98;97735.97;6798163;29;20206;-85
2021/12/26 18:31:05;;;;;;;10.20;8.50;;;;;;;12.08;62.08;97736.78;6809052;29;20276;-82
2021/12/26 18:34:28;;;;;;;13.03;9.27;;;;;;;11.94;62.57;97732.75;6821504;29;20213;-83
2021/12/26 18:37:52;;;;;;;11.17;8.70;;;;;;;11.63;62.70;97733.16;6797067;29;20203;-82
2021/12/26 18:41:15;;;;;;;9.83;8.83;;;;;;;11.89;62.64;97737.19;6816515;29;20642;-83
2021/12/26 18:44:37;;;;;;;10.70;8.37;;;;;;;12.22;61.95;97729.22;6822417;29;20209;-81
2021/12/26 18:47:58;;;;;;;8.63;7.73;;;;;;;12.26;61.78;97722.25;6824205;29;20206;-82
2021/12/26 18:51:24;;;;;;;10.77;8.60;;;;;;;11.67;63.03;97728.09;6826203;29;20229;-82
2021/12/26 18:54:48;;;;;;;12.53;8.93;;;;;;;11.47;63.59;97697.94;6826815;29;20187;-83
2021/12/26 18:58:11;;;;;;;12.70;10.20;;;;;;;11.66;63.42;97711.09;6829887;29;20283;-84
2021/12/26 19:01:35;;;;;;;12.83;9.70;;;;;;;11.37;64.72;97722.84;6821949;29;20230;-82
2021/12/26 19:04:57;;;;;;;13.23;9.40;;;;;;;11.49;64.29;97715.53;6820557;29;20236;-82
2021/12/26 19:08:19;;;;;;;10.03;9.03;;;;;;;11.58;64.31;97730.34;6819935;29;20212;-83
2021/12/26 19:11:41;;;;;;;12.57;10.13;;;;;;;11.47;63.99;97719.53;6819931;29;20586;-83
2021/12/26 19:15:04;;;;;;;13.67;10.10;;;;;;;11.49;64.35;97707.44;6818228;29;20214;-84
2021/12/26 19:18:26;;;;;;;10.20;8.97;;;;;;;12.06;62.36;97711.91;6818986;29;20686;-82
2021/12/26 19:21:48;;;;;;;12.40;10.73;;;;;;;11.58;63.56;97695.25;6817191;29;20225;-82
2021/12/26 19:25:10;;;;;;;10.90;9.37;;;;;;;11.23;64.37;97715.22;6817068;29;20243;-82
2021/12/26 19:28:34;;;;;;;15.63;11.47;;;;;;;11.38;64.84;97707.44;6817731;29;20218;-83
2021/12/26 19:31:57;;;;;;;17.10;13.70;;;;;;;11.69;64.06;97707.91;6806686;29;20234;-82
2021/12/26 19:35:18;;;;;;;13.27;11.27;;;;;;;11.65;64.16;97708.63;6790234;29;20211;-82
2021/12/26 19:38:40;;;;;;;16.97;14.03;;;;;;;11.73;63.88;97706.38;6791416;29;20207;-83
2021/12/26 19:42:05;;;;;;;11.57;10.37;;;;;;;11.87;64.01;97707.72;6807676;29;20244;-84
2021/12/26 19:45:27;;;;;;;13.17;9.77;;;;;;;11.63;64.84;97713.44;6818951;29;20296;-81
2021/12/26 19:48:54;;;;;;;13.53;9.83;;;;;;;11.43;64.90;97700.31;6819106;29;20209;-82
2021/12/26 19:52:15;;;;;;;12.10;10.03;;;;;;;11.61;64.46;97691.25;6819101;29;20225;-81
2021/12/26 19:55:37;;;;;;;13.50;10.20;;;;;;;11.58;64.88;97700.63;6819649;29;20224;-82
2021/12/26 19:58:59;;;;;;;11.63;9.90;;;;;;;11.84;63.78;97694.72;6818356;29;20698;-82
2021/12/26 20:02:20;;;;;;;11.70;9.77;;;;;;;11.98;63.29;97704.16;6818199;29;20245;-82
2021/12/26 20:05:45;;;;;;;12.17;10.27;;;;;;;11.47;63.15;97614.28;6819980;29;20247;-81
2021/12/26 20:09:07;;;;;;;10.13;8.83;;;;;;;11.38;64.75;97689.38;6817580;29;20213;-84
2021/12/26 20:12:28;;;;;;;11.60;9.53;;;;;;;10.46;66.11;97613.91;6818645;29;20232;-81
2021/12/26 20:15:50;;;;;;;13.13;9.73;;;;;;;11.27;66.42;97701.00;6820354;29;20216;-82
2021/12/26 20:19:16;;;;;;;12.37;10.17;;;;;;;11.87;64.54;97706.91;6816238;29;20425;-82
2021/12/26 20:22:40;;;;;;;11.90;9.23;;;;;;;11.82;63.73;97660.91;6817292;29;20838;-82